createdAt,value
2022-08-29T00:00:50.963Z,49.43
2022-08-29T00:03:19.585Z,49.32
2022-08-29T00:05:50.131Z,49.25
2022-08-29T00:08:19.956Z,49.19
2022-08-29T00:10:48.636Z,49.28
2022-08-29T00:13:18.829Z,49.06
2022-08-29T00:15:47.451Z,49.06
2022-08-29T00:18:18.920Z,49.13
2022-08-29T00:20:48.367Z,49.13
2022-08-29T00:23:17.278Z,49.25
2022-08-29T00:25:46.306Z,49.15
2022-08-29T00:28:14.933Z,48.97
2022-08-29T00:30:46.849Z,49.22
2022-08-29T00:33:15.279Z,49.35
2022-08-29T00:35:46.422Z,49.31
2022-08-29T00:38:19.327Z,49.24
2022-08-29T00:40:52.389Z,49.08
2022-08-29T00:43:24.737Z,49.24
2022-08-29T00:46:04.239Z,49.11
2022-08-29T00:48:35.204Z,49.30
2022-08-29T00:51:08.881Z,49.29
2022-08-29T00:53:43.435Z,49.14
2022-08-29T00:56:17.865Z,49.21
2022-08-29T00:58:51.957Z,49.10
2022-08-29T01:01:23.362Z,49.19
2022-08-29T01:03:53.296Z,49.10
2022-08-29T01:06:23.995Z,49.12
2022-08-29T01:08:57.263Z,49.38
2022-08-29T01:11:46.940Z,49.45
2022-08-29T01:14:16.291Z,49.25
2022-08-29T01:16:51.205Z,49.31
2022-08-29T01:19:40.894Z,49.32
2022-08-29T01:22:23.749Z,49.32
2022-08-29T01:24:55.253Z,49.31
2022-08-29T01:27:28.889Z,49.49
2022-08-29T01:29:57.814Z,49.23
2022-08-29T01:32:26.456Z,49.13
2022-08-29T01:34:56.009Z,49.22
2022-08-29T01:37:25.528Z,48.97
2022-08-29T01:39:55.324Z,48.92
2022-08-29T01:42:25.703Z,49.24
2022-08-29T01:44:58.512Z,49.09
2022-08-29T01:47:34.444Z,49.08
2022-08-29T01:50:03.672Z,49.15
2022-08-29T01:52:32.688Z,49.23
2022-08-29T01:55:02.394Z,49.09
2022-08-29T01:57:30.966Z,49.33
2022-08-29T01:59:59.907Z,49.21
2022-08-29T02:02:30.734Z,49.35
2022-08-29T02:04:59.202Z,49.17
2022-08-29T02:07:29.520Z,49.53
2022-08-29T02:09:57.923Z,49.33
2022-08-29T02:12:27.980Z,49.06
2022-08-29T02:14:56.354Z,49.38
2022-08-29T02:17:24.831Z,49.21
2022-08-29T02:19:53.376Z,49.17
2022-08-29T02:22:21.942Z,49.13
2022-08-29T02:24:50.301Z,49.13
2022-08-29T02:27:18.735Z,49.11
2022-08-29T02:29:48.546Z,49.19
2022-08-29T02:32:18.270Z,48.74
2022-08-29T02:34:48.408Z,48.97
2022-08-29T02:37:18.021Z,49.04
2022-08-29T02:39:46.743Z,49.06
2022-08-29T02:42:15.114Z,48.99
2022-08-29T02:44:43.499Z,49.02
2022-08-29T02:47:14.532Z,48.96
2022-08-29T02:49:43.863Z,48.98
2022-08-29T02:52:12.685Z,48.91
2022-08-29T02:54:41.090Z,49.08
2022-08-29T02:57:09.769Z,48.92
2022-08-29T02:59:38.120Z,48.97
2022-08-29T03:02:07.652Z,48.81
2022-08-29T03:04:37.484Z,48.83
2022-08-29T03:07:06.392Z,48.91
2022-08-29T03:09:34.798Z,48.86
2022-08-29T03:12:03.342Z,48.93
2022-08-29T03:14:31.758Z,48.99
2022-08-29T03:17:00.190Z,48.95
2022-08-29T03:19:29.015Z,48.99
2022-08-29T03:21:58.790Z,48.90
2022-08-29T03:24:27.306Z,48.89
2022-08-29T03:26:56.860Z,48.69
2022-08-29T03:29:27.158Z,48.69
2022-08-29T03:31:58.492Z,48.67
2022-08-29T03:34:27.419Z,48.64
2022-08-29T03:36:56.236Z,48.61
2022-08-29T03:39:26.516Z,48.36
2022-08-29T03:41:54.910Z,48.52
2022-08-29T03:44:24.165Z,48.47
2022-08-29T03:46:52.589Z,48.26
2022-08-29T03:49:21.020Z,48.08
2022-08-29T03:51:50.095Z,48.18
2022-08-29T03:54:18.882Z,48.19
2022-08-29T03:56:48.840Z,47.96
2022-08-29T03:59:18.124Z,48.04
2022-08-29T04:01:48.610Z,47.91
2022-08-29T04:04:31.913Z,48.01
2022-08-29T04:07:01.523Z,47.92
2022-08-29T04:09:30.445Z,47.90
2022-08-29T04:12:00.944Z,47.66
2022-08-29T04:14:29.618Z,47.63
2022-08-29T04:16:58.175Z,47.72
2022-08-29T04:19:26.655Z,47.55
2022-08-29T04:21:55.040Z,47.54
2022-08-29T04:24:23.393Z,47.36
2022-08-29T04:26:52.423Z,47.55
2022-08-29T04:29:22.132Z,47.58
2022-08-29T04:31:50.478Z,47.16
2022-08-29T04:34:19.486Z,47.16
2022-08-29T04:36:48.684Z,47.23
2022-08-29T04:39:17.434Z,47.06
2022-08-29T04:41:45.810Z,47.27
2022-08-29T04:44:14.403Z,47.10
2022-08-29T04:46:44.159Z,47.05
2022-08-29T04:49:15.444Z,47.08
2022-08-29T04:51:43.838Z,46.91
2022-08-29T04:54:12.226Z,46.76
2022-08-29T04:56:47.194Z,47.15
2022-08-29T04:59:16.918Z,46.87
2022-08-29T05:01:48.175Z,47.03
2022-08-29T05:04:16.594Z,46.83
2022-08-29T05:06:45.418Z,46.77
2022-08-29T05:09:14.040Z,46.94
2022-08-29T05:11:42.826Z,46.84
2022-08-29T05:14:11.973Z,46.87
2022-08-29T05:16:40.860Z,46.81
2022-08-29T05:19:11.751Z,46.79
2022-08-29T05:21:41.904Z,46.75
2022-08-29T05:24:13.123Z,46.65
2022-08-29T05:26:45.081Z,46.64
2022-08-29T05:29:14.541Z,46.78
2022-08-29T05:31:44.393Z,46.76
2022-08-29T05:34:32.712Z,46.44
2022-08-29T05:37:05.821Z,46.76
2022-08-29T05:39:34.766Z,46.61
2022-08-29T05:42:04.364Z,46.67
2022-08-29T05:44:35.440Z,46.78
2022-08-29T05:47:05.513Z,46.88
2022-08-29T05:49:37.685Z,46.48
2022-08-29T05:52:07.580Z,46.40
2022-08-29T05:54:39.570Z,46.38
2022-08-29T05:57:09.446Z,46.16
2022-08-29T05:59:39.004Z,46.03
2022-08-29T06:02:10.144Z,45.97
2022-08-29T06:04:40.970Z,45.52
2022-08-29T06:07:11.053Z,45.42
2022-08-29T06:09:41.078Z,45.51
2022-08-29T06:12:11.399Z,45.50
2022-08-29T06:14:40.238Z,45.44
2022-08-29T06:17:09.750Z,45.26
2022-08-29T06:19:43.605Z,44.87
2022-08-29T06:22:12.684Z,45.24
2022-08-29T06:24:44.431Z,44.88
2022-08-29T06:27:14.346Z,44.43
2022-08-29T06:29:43.500Z,44.96
2022-08-29T06:32:12.363Z,44.20
2022-08-29T06:34:42.350Z,44.27
2022-08-29T06:37:11.034Z,43.71
2022-08-29T06:39:39.910Z,44.24
2022-08-29T06:42:08.780Z,43.91
2022-08-29T06:44:41.338Z,43.95
2022-08-29T06:47:13.304Z,44.07
2022-08-29T06:49:43.020Z,43.95
2022-08-29T06:52:11.511Z,43.45
2022-08-29T06:54:39.918Z,43.38
2022-08-29T06:57:08.368Z,42.93
2022-08-29T06:59:37.140Z,42.63
2022-08-29T07:02:05.940Z,42.66
2022-08-29T07:04:34.313Z,42.65
2022-08-29T07:07:05.409Z,42.84
2022-08-29T07:09:34.110Z,42.46
2022-08-29T07:12:03.015Z,42.88
2022-08-29T07:14:31.377Z,42.80
2022-08-29T07:17:00.791Z,42.60
2022-08-29T07:19:29.284Z,41.85
2022-08-29T07:22:00.493Z,42.16
2022-08-29T07:24:30.282Z,41.55
2022-08-29T07:26:58.711Z,41.36
2022-08-29T07:29:27.548Z,41.49
2022-08-29T07:31:56.030Z,41.70
2022-08-29T07:34:24.444Z,42.14
2022-08-29T07:36:53.147Z,41.27
2022-08-29T07:39:23.010Z,41.62
2022-08-29T07:41:53.176Z,41.66
2022-08-29T07:44:21.639Z,41.12
2022-08-29T07:46:50.369Z,41.48
2022-08-29T07:49:18.770Z,41.49
2022-08-29T07:51:47.952Z,40.88
2022-08-29T07:54:19.493Z,40.33
2022-08-29T07:56:52.917Z,40.39
2022-08-29T07:59:23.218Z,40.06
2022-08-29T08:01:51.996Z,39.55
2022-08-29T08:04:24.282Z,39.88
2022-08-29T08:06:53.154Z,39.10
2022-08-29T08:09:23.936Z,39.26
2022-08-29T08:11:52.384Z,39.60
2022-08-29T08:14:34.618Z,39.15
2022-08-29T08:17:03.974Z,38.40
2022-08-29T08:19:33.326Z,38.84
2022-08-29T08:22:02.315Z,38.55
2022-08-29T08:24:30.796Z,38.48
2022-08-29T08:26:59.214Z,38.58
2022-08-29T08:29:29.205Z,38.88
2022-08-29T08:31:59.930Z,38.49
2022-08-29T08:34:30.872Z,39.22
2022-08-29T08:36:59.283Z,38.42
2022-08-29T08:39:27.743Z,38.86
2022-08-29T08:42:03.308Z,38.56
2022-08-29T08:45:09.053Z,38.97
2022-08-29T08:47:43.584Z,38.33
2022-08-29T08:50:25.346Z,38.47
2022-08-29T08:52:59.359Z,37.64
2022-08-29T08:55:40.643Z,37.50
2022-08-29T08:58:28.777Z,37.62
2022-08-29T09:01:03.795Z,37.30
2022-08-29T09:04:13.170Z,37.60
2022-08-29T09:07:01.061Z,37.79
2022-08-29T09:09:46.601Z,37.90
2022-08-29T09:12:32.588Z,37.68
2022-08-29T09:15:13.435Z,36.88
2022-08-29T09:17:49.891Z,36.72
2022-08-29T09:20:25.011Z,36.86
2022-08-29T09:23:02.199Z,36.53
2022-08-29T09:25:31.876Z,36.76
2022-08-29T09:28:00.792Z,36.39
2022-08-29T09:30:34.098Z,36.57
2022-08-29T09:33:09.287Z,36.73
2022-08-29T09:35:41.210Z,36.15
2022-08-29T09:38:19.456Z,35.97
2022-08-29T09:40:55.858Z,36.14
2022-08-29T09:43:46.160Z,35.44
2022-08-29T09:46:23.483Z,35.66
2022-08-29T09:49:16.296Z,36.10
2022-08-29T09:51:47.930Z,36.16
2022-08-29T09:54:27.005Z,35.31
2022-08-29T09:57:00.016Z,35.72
2022-08-29T09:59:35.306Z,35.68
2022-08-29T10:02:24.440Z,35.78
2022-08-29T10:04:57.710Z,35.57
2022-08-29T10:07:30.982Z,34.93
2022-08-29T10:10:05.367Z,35.18
2022-08-29T10:12:48.958Z,35.40
2022-08-29T10:15:46.927Z,34.95
2022-08-29T10:18:28.764Z,35.06
2022-08-29T10:21:16.849Z,35.14
2022-08-29T10:24:15.929Z,34.57
2022-08-29T10:26:58.522Z,34.24
2022-08-29T10:29:48.156Z,34.40
2022-08-29T10:32:32.222Z,34.23
2022-08-29T10:35:14.492Z,33.66
2022-08-29T10:37:54.320Z,33.62
2022-08-29T10:40:30.688Z,33.44
2022-08-29T10:43:26.704Z,33.03
2022-08-29T10:46:13.149Z,32.56
2022-08-29T10:48:54.756Z,32.72
2022-08-29T10:51:32.583Z,32.41
2022-08-29T10:54:14.430Z,31.66
2022-08-29T10:56:47.562Z,31.30
2022-08-29T10:59:24.417Z,30.88
2022-08-29T11:02:01.395Z,30.28
2022-08-29T11:04:37.654Z,29.72
2022-08-29T11:07:13.162Z,29.22
2022-08-29T11:09:49.313Z,28.65
2022-08-29T11:12:24.967Z,26.84
2022-08-29T11:15:00.865Z,26.25
2022-08-29T11:17:38.491Z,26.49
2022-08-29T11:20:14.907Z,26.42
2022-08-29T11:22:51.623Z,26.00
2022-08-29T11:25:22.791Z,25.31
2022-08-29T11:28:01.919Z,25.05
2022-08-29T11:30:47.385Z,25.10
2022-08-29T11:33:38.896Z,24.26
2022-08-29T11:36:47.786Z,25.03
2022-08-29T11:39:50.063Z,24.02
2022-08-29T11:45:24.924Z,21.41
2022-08-29T11:48:31.552Z,21.87
2022-08-29T11:51:21.704Z,22.33
2022-08-29T11:53:50.152Z,21.40
2022-08-29T11:56:28.533Z,21.37
2022-08-29T11:59:00.217Z,21.10
2022-08-29T12:02:00.740Z,20.38
2022-08-29T12:04:54.817Z,19.90
2022-08-29T12:07:36.804Z,19.73
2022-08-29T12:10:11.701Z,19.48
2022-08-29T12:12:47.430Z,18.23
2022-08-29T12:15:55.402Z,17.82
2022-08-29T12:18:36.830Z,17.72
2022-08-29T12:21:49.595Z,17.84
2022-08-29T12:24:41.849Z,17.10
2022-08-29T12:28:00.747Z,17.08
2022-08-29T12:30:32.330Z,16.86
2022-08-29T12:33:13.289Z,17.11
2022-08-29T12:36:08.574Z,17.10
2022-08-29T12:38:53.413Z,16.98
2022-08-29T12:41:49.762Z,16.17
2022-08-29T12:44:26.587Z,14.32
2022-08-29T12:47:03.425Z,14.49
2022-08-29T12:49:42.688Z,15.07
2022-08-29T12:52:27.979Z,15.53
2022-08-29T12:54:59.341Z,15.57
2022-08-29T12:57:34.247Z,15.81
2022-08-29T13:00:12.255Z,15.53
2022-08-29T13:02:40.999Z,15.37
2022-08-29T13:05:28.360Z,14.90
2022-08-29T13:08:00.206Z,14.90
2022-08-29T13:10:30.075Z,14.49
2022-08-29T13:13:08.567Z,14.14
2022-08-29T13:15:37.651Z,14.10
2022-08-29T13:18:07.412Z,14.06
2022-08-29T13:21:03.368Z,13.89
2022-08-29T13:23:35.752Z,13.74
2022-08-29T13:26:09.170Z,13.29
2022-08-29T13:28:43.809Z,13.35
2022-08-29T13:31:36.326Z,13.07
2022-08-29T13:34:29.285Z,13.13
2022-08-29T13:37:10.504Z,13.24
2022-08-29T13:39:48.319Z,12.87
2022-08-29T13:42:34.636Z,12.56
2022-08-29T13:45:23.509Z,12.12
2022-08-29T13:48:20.495Z,11.67
2022-08-29T13:50:49.011Z,11.63
2022-08-29T13:53:19.276Z,11.82
2022-08-29T13:55:48.213Z,12.00
2022-08-29T13:58:20.049Z,11.84
2022-08-29T14:00:48.831Z,11.65
2022-08-29T14:03:18.669Z,11.79
2022-08-29T14:05:47.794Z,12.00
2022-08-29T14:08:16.304Z,11.93
2022-08-29T14:10:49.064Z,12.10
2022-08-29T14:13:17.896Z,12.02
2022-08-29T14:15:46.473Z,11.80
2022-08-29T14:18:16.256Z,11.54
2022-08-29T14:20:44.932Z,11.94
2022-08-29T14:23:13.331Z,11.55
2022-08-29T14:25:41.791Z,11.46
2022-08-29T14:28:18.479Z,11.54
2022-08-29T14:30:47.824Z,11.75
2022-08-29T14:33:23.481Z,11.72
2022-08-29T14:35:53.109Z,11.91
2022-08-29T14:38:25.005Z,11.79
2022-08-29T14:40:54.051Z,11.65
2022-08-29T14:43:23.937Z,11.24
2022-08-29T14:45:52.795Z,11.52
2022-08-29T14:48:22.245Z,12.06
2022-08-29T14:50:54.297Z,12.41
2022-08-29T14:53:23.477Z,12.98
2022-08-29T14:55:56.010Z,13.95
2022-08-29T14:58:26.512Z,14.69
2022-08-29T15:00:57.945Z,15.51
2022-08-29T15:03:26.735Z,15.85
2022-08-29T15:05:55.577Z,17.14
2022-08-29T15:08:25.307Z,17.06
2022-08-29T15:11:00.841Z,17.61
2022-08-29T15:13:33.070Z,18.17
2022-08-29T15:16:06.213Z,18.69
2022-08-29T15:19:31.152Z,19.22
2022-08-29T15:21:29.577Z,19.58
2022-08-29T15:23:58.360Z,19.69
2022-08-29T15:26:30.506Z,20.14
2022-08-29T15:29:09.289Z,20.67
2022-08-29T15:31:38.515Z,20.57
2022-08-29T15:34:11.559Z,21.21
2022-08-29T15:36:44.199Z,21.18
2022-08-29T15:39:13.565Z,21.50
2022-08-29T15:41:42.970Z,22.02
2022-08-29T15:44:13.336Z,22.19
2022-08-29T15:46:43.236Z,22.69
2022-08-29T15:49:21.825Z,22.50
2022-08-29T15:51:55.107Z,23.14
2022-08-29T15:54:25.858Z,23.24
2022-08-29T15:56:58.201Z,23.35
2022-08-29T15:59:54.412Z,23.29
2022-08-29T16:02:20.380Z,23.42
2022-08-29T16:04:54.773Z,23.37
2022-08-29T16:07:29.447Z,23.66
2022-08-29T16:10:01.492Z,23.85
2022-08-29T16:12:35.464Z,24.40
2022-08-29T16:15:10.278Z,23.95
2022-08-29T16:17:40.066Z,24.26
2022-08-29T16:20:12.533Z,24.45
2022-08-29T16:22:43.670Z,24.43
2022-08-29T16:25:15.357Z,24.56
2022-08-29T16:27:44.533Z,24.38
2022-08-29T16:30:17.279Z,24.44
2022-08-29T16:32:46.601Z,24.76
2022-08-29T16:35:16.978Z,24.91
2022-08-29T16:38:02.155Z,24.94
2022-08-29T16:40:32.285Z,24.87
2022-08-29T16:43:02.781Z,25.00
2022-08-29T16:45:33.524Z,25.19
2022-08-29T16:48:02.568Z,25.43
2022-08-29T16:50:33.237Z,25.46
2022-08-29T16:53:03.299Z,25.79
2022-08-29T16:55:32.212Z,25.71
2022-08-29T16:58:18.169Z,25.98
2022-08-29T17:00:48.141Z,25.95
2022-08-29T17:03:20.092Z,25.94
2022-08-29T17:05:49.449Z,25.87
2022-08-29T17:08:17.317Z,26.21
2022-08-29T17:10:44.945Z,26.68
2022-08-29T17:13:12.702Z,26.41
2022-08-29T17:15:40.594Z,26.74
2022-08-29T17:18:10.469Z,26.59
2022-08-29T17:20:38.988Z,26.75
2022-08-29T17:23:10.149Z,26.90
2022-08-29T17:25:39.526Z,26.99
2022-08-29T17:28:17.797Z,26.98
2022-08-29T17:30:48.784Z,27.15
2022-08-29T17:33:19.806Z,27.38
2022-08-29T17:35:49.223Z,27.34
2022-08-29T17:38:18.656Z,27.37
2022-08-29T17:40:49.121Z,27.80
2022-08-29T17:43:22.076Z,28.02
2022-08-29T17:45:51.482Z,28.03
2022-08-29T17:48:22.871Z,28.60
2022-08-29T17:50:52.223Z,28.51
2022-08-29T17:53:21.894Z,28.67
2022-08-29T17:55:51.252Z,29.31
2022-08-29T17:58:21.784Z,29.60
2022-08-29T18:00:51.724Z,29.92
2022-08-29T18:03:21.668Z,29.95
2022-08-29T18:05:50.054Z,30.07
2022-08-29T18:08:18.657Z,29.98
2022-08-29T18:10:48.127Z,30.06
2022-08-29T18:13:21.034Z,30.56
2022-08-29T18:15:51.549Z,30.95
2022-08-29T18:18:22.662Z,30.99
2022-08-29T18:20:51.052Z,31.42
2022-08-29T18:23:20.063Z,31.57
2022-08-29T18:25:48.914Z,31.78
2022-08-29T18:28:17.499Z,31.94
2022-08-29T18:30:46.139Z,31.91
2022-08-29T18:33:14.922Z,32.48
2022-08-29T18:35:45.063Z,32.85
2022-08-29T18:38:13.660Z,32.91
2022-08-29T18:40:42.909Z,33.23
2022-08-29T18:43:11.825Z,32.64
2022-08-29T18:45:41.527Z,33.18
2022-08-29T18:48:11.339Z,33.54
2022-08-29T18:50:40.787Z,34.21
2022-08-29T18:53:13.890Z,33.99
2022-08-29T18:55:50.493Z,34.04
2022-08-29T18:58:21.520Z,33.93
2022-08-29T19:00:51.106Z,34.39
2022-08-29T19:03:20.300Z,34.17
2022-08-29T19:05:51.991Z,34.22
2022-08-29T19:08:25.195Z,34.48
2022-08-29T19:10:55.619Z,35.14
2022-08-29T19:13:25.303Z,34.99
2022-08-29T19:15:54.364Z,35.30
2022-08-29T19:18:23.564Z,35.70
2022-08-29T19:21:06.397Z,35.34
2022-08-29T19:23:39.518Z,35.24
2022-08-29T19:26:11.816Z,35.72
2022-08-29T19:28:41.035Z,35.12
2022-08-29T19:31:10.589Z,35.83
2022-08-29T19:33:42.677Z,35.61
2022-08-29T19:36:12.051Z,35.92
2022-08-29T19:38:42.823Z,35.75
2022-08-29T19:41:12.545Z,35.94
2022-08-29T19:43:41.948Z,36.43
2022-08-29T19:46:16.510Z,36.18
2022-08-29T19:48:48.441Z,36.23
2022-08-29T19:51:25.070Z,36.65
2022-08-29T19:53:57.136Z,36.34
2022-08-29T19:56:26.802Z,36.59
2022-08-29T19:58:55.588Z,36.91
2022-08-29T20:01:25.859Z,36.63
2022-08-29T20:03:55.094Z,36.74
2022-08-29T20:06:24.715Z,36.57
2022-08-29T20:08:54.702Z,36.82
2022-08-29T20:11:25.966Z,36.76
2022-08-29T20:13:57.824Z,36.90
2022-08-29T20:16:31.008Z,37.24
2022-08-29T20:19:00.552Z,37.21
2022-08-29T20:21:29.578Z,37.39
2022-08-29T20:23:59.438Z,37.66
2022-08-29T20:26:34.334Z,37.75
2022-08-29T20:29:06.574Z,37.59
2022-08-29T20:31:36.081Z,37.79
2022-08-29T20:34:05.657Z,38.17
2022-08-29T20:36:51.279Z,37.75
2022-08-29T20:39:23.083Z,38.11
2022-08-29T20:41:53.743Z,37.65
2022-08-29T20:44:22.599Z,37.94
2022-08-29T20:46:52.131Z,37.83
2022-08-29T20:49:23.170Z,38.17
2022-08-29T20:51:52.498Z,37.88
2022-08-29T20:54:25.359Z,38.30
2022-08-29T20:56:55.368Z,37.78
2022-08-29T20:59:26.636Z,37.81
2022-08-29T21:01:56.443Z,37.80
2022-08-29T21:04:42.538Z,38.33
2022-08-29T21:07:14.230Z,37.66
2022-08-29T21:09:52.004Z,37.85
2022-08-29T21:12:21.608Z,38.09
2022-08-29T21:14:55.920Z,37.83
2022-08-29T21:17:24.382Z,37.93
2022-08-29T21:19:52.796Z,38.10
2022-08-29T21:22:24.829Z,37.85
2022-08-29T21:24:56.232Z,38.06
2022-08-29T21:27:24.715Z,38.06
2022-08-29T21:29:56.753Z,38.24
2022-08-29T21:32:25.207Z,38.22
2022-08-29T21:34:53.613Z,37.85
2022-08-29T21:37:22.166Z,37.67
2022-08-29T21:39:50.555Z,37.93
2022-08-29T21:42:20.390Z,37.89
2022-08-29T21:44:48.841Z,38.28
2022-08-29T21:47:18.151Z,38.44
2022-08-29T21:49:48.509Z,38.10
2022-08-29T21:52:16.952Z,37.86
2022-08-29T21:54:45.769Z,38.46
2022-08-29T21:57:17.401Z,38.31
2022-08-29T21:59:48.396Z,38.39
2022-08-29T22:02:17.558Z,38.72
2022-08-29T22:04:46.149Z,38.44
2022-08-29T22:07:14.535Z,38.60
2022-08-29T22:09:42.948Z,38.65
2022-08-29T22:12:14.203Z,38.55
2022-08-29T22:15:00.131Z,38.53
2022-08-29T22:17:30.276Z,38.73
2022-08-29T22:19:58.727Z,38.30
2022-08-29T22:22:27.201Z,38.98
2022-08-29T22:24:55.804Z,38.73
2022-08-29T22:27:24.219Z,38.87
2022-08-29T22:29:52.610Z,38.99
2022-08-29T22:32:21.104Z,38.98
2022-08-29T22:34:51.562Z,38.93
2022-08-29T22:37:19.974Z,39.15
2022-08-29T22:39:48.308Z,38.96
2022-08-29T22:42:17.416Z,39.06
2022-08-29T22:47:34.130Z,39.26
2022-08-29T22:50:04.849Z,39.25
2022-08-29T22:52:33.298Z,39.42
2022-08-29T22:55:01.764Z,39.46
2022-08-29T22:57:30.246Z,39.60
2022-08-29T22:59:58.614Z,39.52
2022-08-29T23:02:27.228Z,39.60
2022-08-29T23:04:55.839Z,39.58
2022-08-29T23:07:25.644Z,39.65
2022-08-29T23:09:54.122Z,40.07
2022-08-29T23:12:22.483Z,39.79
2022-08-29T23:14:52.297Z,40.36
2022-08-29T23:17:21.083Z,40.19
2022-08-29T23:19:50.069Z,39.94
2022-08-29T23:22:18.653Z,40.04
2022-08-29T23:24:58.408Z,39.77
2022-08-29T23:27:29.158Z,39.85
2022-08-29T23:29:58.921Z,39.96
2022-08-29T23:32:28.264Z,40.06
2022-08-29T23:34:57.114Z,40.17
2022-08-29T23:37:26.378Z,40.06
2022-08-29T23:39:56.260Z,40.27
2022-08-29T23:42:24.878Z,40.32
2022-08-29T23:44:53.323Z,40.24
2022-08-29T23:47:22.101Z,40.19
2022-08-29T23:49:50.473Z,40.29
2022-08-29T23:52:19.117Z,40.30
2022-08-29T23:54:47.539Z,40.38
2022-08-29T23:57:17.407Z,40.48
